Mardan Weather



Mardan's Current Weather

Temprature 40.3o clear sky

clear sky

Rain: 0 %

Min Temprature40.3o
Max Temprature40.3o
Humidity21
Wind Speed0.7 m/h
Sun Rise05:16:51
Sun Set19:19:24
Current Time: 24-Jul-2021 16:38:46
Lat/Lon: 34.2019, 72.0525




Mardan's Geo Location



Mardan's Weather Forecast

Time Overall Temp Min Temp Max Temp Humidity Wind Speed Rain
24-Jul-2021 (Sat)
17:00:00 clear sky 40.300 40.300 41.750 21 0.7 m/h 0 %
20:00:00 clear sky 39.510 37.940 39.510 23 1.92 m/h 0 %
23:00:00 clear sky 37.490 36.080 37.490 28 2.34 m/h 0 %
25-Jul-2021 (Sun)
02:00:00 clear sky 33.950 33.950 33.950 36 2.73 m/h 0 %
05:00:00 clear sky 32.360 32.360 32.360 41 2.54 m/h 0 %
08:00:00 broken clouds 35.860 35.860 35.860 34 2.21 m/h 0 %
11:00:00 overcast clouds 40.220 40.220 40.220 26 3.16 m/h 0 %
14:00:00 broken clouds 42.620 42.620 42.620 21 1.67 m/h 0 %
17:00:00 scattered clouds 43.230 43.230 43.230 19 1.28 m/h 0 %
20:00:00 clear sky 39.090 39.090 39.090 26 2.86 m/h 0 %
23:00:00 clear sky 37.190 37.190 37.190 30 2.86 m/h 0 %
26-Jul-2021 (Mon)
02:00:00 scattered clouds 34.810 34.810 34.810 44 6.2 m/h 0 %
05:00:00 broken clouds 33.620 33.620 33.620 51 3.41 m/h 0 %
08:00:00 broken clouds 35.820 35.820 35.820 49 5.46 m/h 0 %
11:00:00 scattered clouds 39.720 39.720 39.720 37 4.54 m/h 0 %
14:00:00 clear sky 42.400 42.400 42.400 29 3.14 m/h 0 %
17:00:00 clear sky 43.030 43.030 43.030 26 2.95 m/h 0 %
20:00:00 clear sky 39.170 39.170 39.170 34 3.58 m/h 0 %
23:00:00 clear sky 36.390 36.390 36.390 45 7.26 m/h 0 %
27-Jul-2021 (Tue)
02:00:00 broken clouds 33.910 33.910 33.910 57 6.31 m/h 0 %
05:00:00 broken clouds 32.060 32.060 32.060 65 5.04 m/h 0 %
08:00:00 scattered clouds 33.560 33.560 33.560 59 5.05 m/h 0 %
11:00:00 scattered clouds 38.120 38.120 38.120 45 5.25 m/h 0 %
14:00:00 broken clouds 41.000 41.000 41.000 36 5.34 m/h 0 %
17:00:00 scattered clouds 41.310 41.310 41.310 33 6.49 m/h 0 %
20:00:00 light rain 34.710 34.710 34.710 53 8.99 m/h 15 %
23:00:00 light rain 30.940 30.940 30.940 68 8.59 m/h 197 %
28-Jul-2021 (Wed)
02:00:00 moderate rain 28.780 28.780 28.780 78 5.49 m/h 643 %
05:00:00 moderate rain 28.210 28.210 28.210 81 3.8 m/h 580 %
08:00:00 light rain 27.580 27.580 27.580 84 3.31 m/h 187 %
11:00:00 light rain 28.080 28.080 28.080 81 4.61 m/h 157 %
14:00:00 light rain 27.840 27.840 27.840 81 5.3 m/h 284 %
17:00:00 light rain 29.050 29.050 29.050 74 4.68 m/h 40 %
20:00:00 moderate rain 26.720 26.720 26.720 86 3.18 m/h 314 %
23:00:00 light rain 26.460 26.460 26.460 87 1.11 m/h 232 %
29-Jul-2021 (Thu)
02:00:00 light rain 26.330 26.330 26.330 89 1.54 m/h 253 %
05:00:00 moderate rain 25.260 25.260 25.260 93 2.16 m/h 578 %
08:00:00 moderate rain 25.690 25.690 25.690 90 2.5 m/h 346 %
11:00:00 light rain 27.480 27.480 27.480 80 0.37 m/h 125 %
14:00:00 scattered clouds 32.580 32.580 32.580 59 0.96 m/h 0 %

Famous Cities (60)